Time;durP1;ratioP1;P1;durP2;ratioP2;P2;SDS_P1;SDS_P2;PMS_P1;PMS_P2;Temp;Humidity;BMP_temperature;BMP_pressure;BME280_temperature;BME280_humidity;BME280_pressure;Samples;Min_cycle;Max_cycle;Signal;HPM_P1;HPM_P2
2022/06/10 00:01:43;;;;;;;;;;;;;;;;;;12625731;28;19915;-83
2022/06/10 00:07:45;;;;;;;;;;;;;;;;;;12626047;28;19912;-83
2022/06/10 00:13:46;;;;;;;;;;;;;;;;;;12644399;28;19916;-83
2022/06/10 00:19:48;;;;;;;;;;;;;;;;;;12643184;28;19927;-83
2022/06/10 00:25:49;;;;;;;;;;;;;;;;;;12647110;28;19908;-83
2022/06/10 00:31:51;;;;;;;;;;;;;;;;;;12634438;28;19915;-83
2022/06/10 00:37:52;;;;;;;;;;;;;;;;;;12634070;28;20388;-82
2022/06/10 00:43:54;;;;;;;;;;;;;;;;;;12651617;28;19908;-82
2022/06/10 00:49:55;;;;;;;;;;;;;;;;;;12651802;28;20332;-82
2022/06/10 00:55:57;;;;;;;;;;;;;;;;;;12651120;28;19923;-82
2022/06/10 01:01:58;;;;;;;;;;;;;;;;;;12650965;28;19915;-82
2022/06/10 01:08:00;;;;;;;;;;;;;;;;;;12649580;28;19907;-82
2022/06/10 01:14:01;;;;;;;;;;;;;;;;;;12650631;28;19916;-81
2022/06/10 01:20:03;;;;;;;;;;;;;;;;;;12650111;28;19920;-82
2022/06/10 01:26:04;;;;;;;;;;;;;;;;;;12649772;28;19930;-82
2022/06/10 01:32:06;;;;;;;;;;;;;;;;;;12648536;28;20507;-82
2022/06/10 01:38:07;;;;;;;;;;;;;;;;;;12647699;28;19916;-82
2022/06/10 01:44:09;;;;;;;;;;;;;;;;;;12648698;28;19911;-83
2022/06/10 01:50:11;;;;;;;;;;;;;;;;;;12630572;28;19912;-82
2022/06/10 01:56:12;;;;;;;;;;;;;;;;;;12630281;28;20296;-83
2022/06/10 02:02:14;;;;;;;;;;;;;;;;;;12648307;28;19915;-83
2022/06/10 02:08:16;;;;;;;;;;;;;;;;;;12647597;28;19912;-83
2022/06/10 02:14:17;;;;;;;;;;;;;;;;;;12648077;28;19915;-82
2022/06/10 02:20:19;;;;;;;;;;;;;;;;;;12645959;28;19912;-83
2022/06/10 02:26:20;;;;;;;;;;;;;;;;;;12646672;28;19915;-83
2022/06/10 02:32:22;;;;;;;;;;;;;;;;;;12629029;28;19908;-83
2022/06/10 02:38:24;;;;;;;;;;;;;;;;;;12646499;28;19915;-82
2022/06/10 02:44:25;;;;;;;;;;;;;;;;;;12628754;28;19935;-82
2022/06/10 02:50:27;;;;;;;;;;;;;;;;;;12645434;28;19919;-82
2022/06/10 02:56:28;;;;;;;;;;;;;;;;;;12645765;28;19992;-82
2022/06/10 03:02:29;;;;;;;;;;;;;;;;;;12644163;28;20392;-82
2022/06/10 03:08:31;;;;;;;;;;;;;;;;;;12645394;28;19915;-82
2022/06/10 03:14:33;;;;;;;;;;;;;;;;;;12645863;28;19916;-82
2022/06/10 03:20:34;;;;;;;;;;;;;;;;;;12650139;28;19912;-81
2022/06/10 03:26:36;;;;;;;;;;;;;;;;;;12644604;28;19912;-81
2022/06/10 03:32:37;;;;;;;;;;;;;;;;;;12643800;28;19914;-82
2022/06/10 03:38:39;;;;;;;;;;;;;;;;;;12643156;28;19916;-81
2022/06/10 03:44:40;;;;;;;;;;;;;;;;;;12645219;28;19908;-82
2022/06/10 03:50:42;;;;;;;;;;;;;;;;;;12626741;28;19912;-82
2022/06/10 03:56:44;;;;;;;;;;;;;;;;;;12643089;28;20170;-83
2022/06/10 04:02:45;;;;;;;;;;;;;;;;;;12650015;28;19911;-82
2022/06/10 04:08:46;;;;;;;;;;;;;;;;;;12654900;28;19915;-82
2022/06/10 04:14:48;;;;;;;;;;;;;;;;;;12655562;28;20369;-81
2022/06/10 04:20:49;;;;;;;;;;;;;;;;;;12657161;28;19912;-82
2022/06/10 04:26:51;;;;;;;;;;;;;;;;;;12655402;28;19912;-82
2022/06/10 04:32:53;;;;;;;;;;;;;;;;;;12657112;28;19915;-83
2022/06/10 04:38:55;;;;;;;;;;;;;;;;;;12638369;28;19916;-82
2022/06/10 04:44:57;;;;;;;;;;;;;;;;;;12658551;28;19908;-83
2022/06/10 04:50:59;;;;;;;;;;;;;;;;;;12655418;28;19919;-82
2022/06/10 04:57:00;;;;;;;;;;;;;;;;;;12635466;28;19916;-83
2022/06/10 05:03:02;;;;;;;;;;;;;;;;;;12636332;28;19908;-82
2022/06/10 05:09:04;;;;;;;;;;;;;;;;;;12652966;28;19908;-83
2022/06/10 05:15:05;;;;;;;;;;;;;;;;;;12634347;28;19927;-82
2022/06/10 05:21:07;;;;;;;;;;;;;;;;;;12653464;28;20288;-83
2022/06/10 05:27:08;;;;;;;;;;;;;;;;;;12650535;28;20300;-83
2022/06/10 05:33:10;;;;;;;;;;;;;;;;;;12631885;28;19915;-82
2022/06/10 05:39:12;;;;;;;;;;;;;;;;;;12646625;28;19915;-82
2022/06/10 05:45:14;;;;;;;;;;;;;;;;;;12650126;28;20361;-82
2022/06/10 05:51:15;;;;;;;;;;;;;;;;;;12650243;28;19916;-82
2022/06/10 05:57:17;;;;;;;;;;;;;;;;;;12630018;28;19930;-82
2022/06/10 06:03:19;;;;;;;;;;;;;;;;;;12647611;28;20311;-81
2022/06/10 06:09:20;;;;;;;;;;;;;;;;;;12629844;28;19908;-82
2022/06/10 06:15:22;;;;;;;;;;;;;;;;;;12629451;28;19916;-82
2022/06/10 06:21:23;;;;;;;;;;;;;;;;;;12627978;28;20276;-81
2022/06/10 06:27:25;;;;;;;;;;;;;;;;;;12629551;28;19908;-82
2022/06/10 06:33:26;;;;;;;;;;;;;;;;;;12646659;28;20291;-82
2022/06/10 06:39:28;;;;;;;;;;;;;;;;;;12646571;28;20284;-80
2022/06/10 06:45:30;;;;;;;;;;;;;;;;;;12615458;28;19908;-82
2022/06/10 06:51:32;;;;;;;;;;;;;;;;;;12645199;28;19919;-79
2022/06/10 06:57:33;;;;;;;;;;;;;;;;;;12645425;28;19927;-79
2022/06/10 07:03:35;;;;;;;;;;;;;;;;;;12622963;28;19915;-79
2022/06/10 07:09:36;;;;;;;;;;;;;;;;;;12591302;28;20273;-79
2022/06/10 07:15:39;;;;;;;;;;;;;;;;;;12543809;28;19916;-80
2022/06/10 07:21:41;;;;;;;;;;;;;;;;;;12537632;28;19913;-81
2022/06/10 07:27:43;;;;;;;;;;;;;;;;;;12540845;28;20324;-80
2022/06/10 07:33:44;;;;;;;;;;;;;;;;;;12523488;28;19909;-80
2022/06/10 07:39:45;;;;;;;;;;;;;;;;;;12520862;28;19921;-80
2022/06/10 07:45:47;;;;;;;;;;;;;;;;;;12539911;28;19909;-81
2022/06/10 07:51:48;;;;;;;;;;;;;;;;;;12537279;28;20374;-80
2022/06/10 07:57:50;;;;;;;;;;;;;;;;;;12539189;28;19924;-80
2022/06/10 08:03:52;;;;;;;;;;;;;;;;;;12538297;28;19916;-81
2022/06/10 08:09:53;;;;;;;;;;;;;;;;;;12543111;28;19915;-80
2022/06/10 08:15:55;;;;;;;;;;;;;;;;;;12617651;28;19923;-81
2022/06/10 08:28:16;;;;;;;;;;;;;;;;;;12642412;28;19915;-82
2022/06/10 08:34:18;;;;;;;;;;;;;;;;;;12639960;28;19909;-79
2022/06/10 08:40:19;;;;;;;;;;;;;;;;;;12625058;28;20383;-80
2022/06/10 08:46:21;;;;;;;;;;;;;;;;;;12627289;28;19912;-79
2022/06/10 08:52:22;;;;;;;;;;;;;;;;;;12650612;28;19915;-80
2022/06/10 08:58:24;;;;;;;;;;;;;;;;;;12651015;28;19916;-79
2022/06/10 09:04:25;;;;;;;;;;;;;;;;;;12649731;28;19908;-80
2022/06/10 09:10:26;;;;;;;;;;;;;;;;;;12647457;28;19931;-79
2022/06/10 09:16:28;;;;;;;;;;;;;;;;;;12632689;28;19927;-79
2022/06/10 09:22:30;;;;;;;;;;;;;;;;;;12649741;28;20218;-79
2022/06/10 09:28:32;;;;;;;;;;;;;;;;;;12614772;28;19908;-78
2022/06/10 09:34:34;;;;;;;;;;;;;;;;;;12632167;28;19915;-80
2022/06/10 09:40:36;;;;;;;;;;;;;;;;;;12631564;28;19920;-80
2022/06/10 09:46:38;;;;;;;;;;;;;;;;;;12614229;28;19916;-79
2022/06/10 09:52:40;;;;;;;;;;;;;;;;;;12613968;28;20357;-79
2022/06/10 09:58:42;;;;;;;;;;;;;;;;;;12648713;28;19916;-79
2022/06/10 10:04:43;;;;;;;;;;;;;;;;;;12645328;28;19908;-79
2022/06/10 10:10:45;;;;;;;;;;;;;;;;;;12648483;28;20272;-79
2022/06/10 10:16:46;;;;;;;;;;;;;;;;;;12595897;28;19925;-79
2022/06/10 10:22:48;;;;;;;;;;;;;;;;;;12595291;28;19923;-80
2022/06/10 10:28:49;;;;;;;;;;;;;;;;;;12595206;28;19908;-79
2022/06/10 10:34:51;;;;;;;;;;;;;;;;;;12577785;28;19915;-79
2022/06/10 10:40:52;;;;;;;;;;;;;;;;;;12595899;28;19915;-80
2022/06/10 10:46:54;;;;;;;;;;;;;;;;;;12593670;28;19919;-79
2022/06/10 10:52:55;;;;;;;;;;;;;;;;;;12593952;28;19916;-79
2022/06/10 10:58:57;;;;;;;;;;;;;;;;;;12595474;28;19916;-79
2022/06/10 11:04:58;;;;;;;;;;;;;;;;;;12595000;28;19931;-79
2022/06/10 11:11:00;;;;;;;;;;;;;;;;;;12593961;28;19909;-80
2022/06/10 11:17:01;;;;;;;;;;;;;;;;;;12594922;28;20362;-80
2022/06/10 11:23:03;;;;;;;;;;;;;;;;;;12594236;28;19908;-80
2022/06/10 11:29:04;;;;;;;;;;;;;;;;;;12592937;28;19908;-80
2022/06/10 11:35:05;;;;;;;;;;;;;;;;;;12591694;28;20361;-79
2022/06/10 11:41:09;;;;;;;;;;;;;;;;;;12593573;28;20277;-79
2022/06/10 11:47:10;;;;;;;;;;;;;;;;;;12591892;28;19935;-79
2022/06/10 11:53:12;;;;;;;;;;;;;;;;;;12575254;28;19909;-80
2022/06/10 12:05:34;;;;;;;;;;;;;;;;;;12591876;28;19915;-80
2022/06/10 12:11:36;;;;;;;;;;;;;;;;;;12573375;28;19920;-81
2022/06/10 12:17:38;;;;;;;;;;;;;;;;;;12607884;28;20399;-82
2022/06/10 12:23:40;;;;;;;;;;;;;;;;;;12650731;28;19908;-82
2022/06/10 12:29:41;;;;;;;;;;;;;;;;;;12634440;28;19915;-84
2022/06/10 12:35:43;;;;;;;;;;;;;;;;;;12651008;28;19923;-82
2022/06/10 12:41:45;;;;;;;;;;;;;;;;;;12634175;28;19912;-84
2022/06/10 12:47:47;;;;;;;;;;;;;;;;;;12650248;28;20280;-82
2022/06/10 12:53:49;;;;;;;;;;;;;;;;;;12651112;28;19915;-83
2022/06/10 12:59:50;;;;;;;;;;;;;;;;;;12632850;28;19916;-86
2022/06/10 13:05:51;;;;;;;;;;;;;;;;;;12632881;28;19908;-86
2022/06/10 13:11:53;;;;;;;;;;;;;;;;;;12650880;28;19915;-86
2022/06/10 13:17:55;;;;;;;;;;;;;;;;;;12651062;28;20390;-85
2022/06/10 13:23:56;;;;;;;;;;;;;;;;;;12650112;28;20387;-85
2022/06/10 13:29:58;;;;;;;;;;;;;;;;;;12648560;28;19915;-86
2022/06/10 13:35:59;;;;;;;;;;;;;;;;;;12649063;28;19916;-86
2022/06/10 13:42:01;;;;;;;;;;;;;;;;;;12631271;28;19915;-86
2022/06/10 13:48:06;;;;;;;;;;;;;;;;;;12648671;28;19912;-87
2022/06/10 13:54:10;;;;;;;;;;;;;;;;;;12648281;28;19915;-87
2022/06/10 14:00:11;;;;;;;;;;;;;;;;;;12630311;28;19916;-87
2022/06/10 14:06:13;;;;;;;;;;;;;;;;;;12629896;28;19908;-88
2022/06/10 14:12:17;;;;;;;;;;;;;;;;;;12647990;28;19916;-86
2022/06/10 14:18:21;;;;;;;;;;;;;;;;;;12645908;28;19927;-87
2022/06/10 14:24:23;;;;;;;;;;;;;;;;;;12646036;28;19908;-87
2022/06/10 14:30:25;;;;;;;;;;;;;;;;;;12628754;28;20370;-85
2022/06/10 14:36:26;;;;;;;;;;;;;;;;;;12646486;28;19920;-88
2022/06/10 14:42:28;;;;;;;;;;;;;;;;;;12627791;28;19908;-87
2022/06/10 14:48:29;;;;;;;;;;;;;;;;;;12627686;28;19919;-87
2022/06/10 14:54:31;;;;;;;;;;;;;;;;;;12627378;28;19908;-87
2022/06/10 15:00:33;;;;;;;;;;;;;;;;;;12628054;28;19923;-88
2022/06/10 15:06:35;;;;;;;;;;;;;;;;;;12627507;28;19908;-88
2022/06/10 15:12:36;;;;;;;;;;;;;;;;;;12626722;28;19927;-88
2022/06/10 15:18:38;;;;;;;;;;;;;;;;;;12645152;28;19920;-89
2022/06/10 15:24:39;;;;;;;;;;;;;;;;;;12649800;28;19908;-90
2022/06/10 15:30:42;;;;;;;;;;;;;;;;;;12643147;28;19908;-88
2022/06/10 15:43:31;;;;;;;;;;;;;;;;;;12628336;28;19912;-87
2022/06/10 15:49:32;;;;;;;;;;;;;;;;;;12647501;28;19912;-90
2022/06/10 16:01:54;;;;;;;;;;;;;;;;;;12654854;28;19915;-87
2022/06/10 16:07:56;;;;;;;;;;;;;;;;;;12635986;28;19908;-87
2022/06/10 16:13:58;;;;;;;;;;;;;;;;;;12653531;28;19916;-86
2022/06/10 16:19:59;;;;;;;;;;;;;;;;;;12651737;28;19920;-88
2022/06/10 16:26:01;;;;;;;;;;;;;;;;;;12634688;28;20292;-88
2022/06/10 16:32:05;;;;;;;;;;;;;;;;;;12634545;28;19908;-89
2022/06/10 16:38:06;;;;;;;;;;;;;;;;;;12652450;28;20212;-89
2022/06/10 16:44:08;;;;;;;;;;;;;;;;;;12651794;28;20257;-89
2022/06/10 16:50:09;;;;;;;;;;;;;;;;;;12651061;28;19923;-87
2022/06/10 16:56:11;;;;;;;;;;;;;;;;;;12657370;28;19915;-89
2022/06/10 17:02:13;;;;;;;;;;;;;;;;;;12650396;28;19935;-88
2022/06/10 17:08:18;;;;;;;;;;;;;;;;;;12650345;28;20276;-88
2022/06/10 17:14:20;;;;;;;;;;;;;;;;;;12633453;28;19939;-88
2022/06/10 17:20:21;;;;;;;;;;;;;;;;;;12631977;28;19927;-88
2022/06/10 17:26:23;;;;;;;;;;;;;;;;;;12649817;28;19908;-88
2022/06/10 17:32:24;;;;;;;;;;;;;;;;;;12649937;28;19908;-83
2022/06/10 17:38:26;;;;;;;;;;;;;;;;;;12650835;28;19915;-89
2022/06/10 17:44:27;;;;;;;;;;;;;;;;;;12637034;28;19908;-88
2022/06/10 17:50:31;;;;;;;;;;;;;;;;;;12632301;28;19912;-88
2022/06/10 17:56:33;;;;;;;;;;;;;;;;;;12631731;28;19916;-88
2022/06/10 18:02:35;;;;;;;;;;;;;;;;;;12647018;28;19915;-89
2022/06/10 18:08:37;;;;;;;;;;;;;;;;;;12630338;28;19911;-87
2022/06/10 18:14:53;;;;;;;;;;;;;;;;;;12648163;28;20368;-88
2022/06/10 18:20:55;;;;;;;;;;;;;;;;;;12629096;28;19920;-88
2022/06/10 18:26:56;;;;;;;;;;;;;;;;;;12628677;28;19908;-88
2022/06/10 18:32:59;;;;;;;;;;;;;;;;;;12645748;28;19908;-84
2022/06/10 18:39:00;;;;;;;;;;;;;;;;;;12628307;28;19916;-84
2022/06/10 18:45:03;;;;;;;;;;;;;;;;;;12629034;28;19908;-84
2022/06/10 18:51:05;;;;;;;;;;;;;;;;;;12628094;28;19912;-83
2022/06/10 18:57:06;;;;;;;;;;;;;;;;;;12645708;28;19916;-88
2022/06/10 19:03:08;;;;;;;;;;;;;;;;;;12645091;28;19908;-88
2022/06/10 19:09:10;;;;;;;;;;;;;;;;;;12627415;28;20273;-89
2022/06/10 19:15:11;;;;;;;;;;;;;;;;;;12627285;28;19916;-88
2022/06/10 19:21:13;;;;;;;;;;;;;;;;;;12626908;28;19920;-88
2022/06/10 19:27:14;;;;;;;;;;;;;;;;;;12626875;28;19931;-89
2022/06/10 19:33:16;;;;;;;;;;;;;;;;;;12626058;28;19915;-87
2022/06/10 19:39:18;;;;;;;;;;;;;;;;;;12626662;28;19916;-87
2022/06/10 19:45:19;;;;;;;;;;;;;;;;;;12642908;28;20383;-88
2022/06/10 19:51:22;;;;;;;;;;;;;;;;;;12642827;28;19919;-88
2022/06/10 19:57:24;;;;;;;;;;;;;;;;;;12625868;28;19916;-89
2022/06/10 20:03:25;;;;;;;;;;;;;;;;;;12642870;28;19908;-88
2022/06/10 20:09:27;;;;;;;;;;;;;;;;;;12644094;28;20295;-88
2022/06/10 20:15:28;;;;;;;;;;;;;;;;;;12643056;28;20258;-90
2022/06/10 20:21:30;;;;;;;;;;;;;;;;;;12643423;28;19931;-88
2022/06/10 20:27:32;;;;;;;;;;;;;;;;;;12625103;28;19908;-89
2022/06/10 20:33:33;;;;;;;;;;;;;;;;;;12643296;28;19908;-89
2022/06/10 20:39:35;;;;;;;;;;;;;;;;;;12642251;28;19922;-91
2022/06/10 20:45:36;;;;;;;;;;;;;;;;;;12652865;28;20357;-88
2022/06/10 20:51:38;;;;;;;;;;;;;;;;;;12652111;28;19912;-88
2022/06/10 20:57:40;;;;;;;;;;;;;;;;;;12650108;28;20376;-89
2022/06/10 21:07:27;;;;;;;;;;;;;;;;;;12633342;28;19915;-89
2022/06/10 21:10:02;;;;;;;;;;;;;;;;;;12649889;28;20276;-89
2022/06/10 21:16:04;;;;;;;;;;;;;;;;;;12651279;28;19923;-89
2022/06/10 21:22:05;;;;;;;;;;;;;;;;;;12632475;28;19919;-89
2022/06/10 21:28:07;;;;;;;;;;;;;;;;;;12641074;28;19911;-88
2022/06/10 21:34:09;;;;;;;;;;;;;;;;;;12632167;28;20375;-89
2022/06/10 21:40:10;;;;;;;;;;;;;;;;;;12649576;28;19927;-89
2022/06/10 21:46:12;;;;;;;;;;;;;;;;;;12651372;28;20249;-90
2022/06/10 21:52:13;;;;;;;;;;;;;;;;;;12649519;28;19916;-91
2022/06/10 21:58:15;;;;;;;;;;;;;;;;;;12649473;28;19939;-88
2022/06/10 22:04:17;;;;;;;;;;;;;;;;;;12630734;28;20386;-84
2022/06/10 22:10:18;;;;;;;;;;;;;;;;;;12648999;28;19915;-90
2022/06/10 22:16:20;;;;;;;;;;;;;;;;;;12648669;28;19920;-90
2022/06/10 22:22:21;;;;;;;;;;;;;;;;;;12648453;28;19908;-90
2022/06/10 22:28:23;;;;;;;;;;;;;;;;;;12646771;28;19908;-90
2022/06/10 22:34:25;;;;;;;;;;;;;;;;;;12630178;28;20277;-90
2022/06/10 22:40:26;;;;;;;;;;;;;;;;;;12629547;28;19916;-89
2022/06/10 22:46:31;;;;;;;;;;;;;;;;;;12647589;28;19911;-90
2022/06/10 22:52:32;;;;;;;;;;;;;;;;;;12647419;28;19908;-91
2022/06/10 22:58:34;;;;;;;;;;;;;;;;;;12629057;28;19922;-91
2022/06/10 23:10:55;;;;;;;;;;;;;;;;;;12646543;28;19908;-90
2022/06/10 23:16:57;;;;;;;;;;;;;;;;;;12628261;28;19927;-90
2022/06/10 23:23:00;;;;;;;;;;;;;;;;;;12628468;28;19920;-91
2022/06/10 23:29:01;;;;;;;;;;;;;;;;;;12628864;28;19908;-91
2022/06/10 23:35:03;;;;;;;;;;;;;;;;;;12646896;28;19908;-91
2022/06/10 23:41:04;;;;;;;;;;;;;;;;;;12645869;28;19923;-91
2022/06/10 23:53:26;;;;;;;;;;;;;;;;;;12645266;28;19916;-90
2022/06/10 23:59:28;;;;;;;;;;;;;;;;;;12627140;28;19920;-90
